• Join FlightAware (Why Join?)
  • Login
  • US Flag 
04:45AM EDT


 

Airport Tracker/Info


-or-


 

Live Flight TrackerFlight Track Log ✈ SWA1729 ✈ 14-Apr-2013 ✈ KBNA - KHOU

Flight Track Log - Related Links

Times and Time Zones

All times are in EDT time to prevent confusion due to time zone crossing. See the SWA1729 flight status page for this flight to view local times or setup timezone preferences in your user account.

Time Position Orientation Groundspeed Altitude Reporting Facility
EDT Latitude Longitude Course Direction KTS MPH feet Rate Location/Type
07:37PM 36.1000 -86.6833 255° West 164 189 1,500  Level Nashville TRACON
07:38PM 36.0833 -86.7614 255° West 170 196 3,700 2,520 Climbing Memphis Center
07:39PM 36.0858 -86.8433 272° West 220 253 7,100 2,880 Climbing Memphis Center
07:40PM 36.0903 -86.9331 274° West 252 290 9,500 2,400 Climbing Memphis Center
07:41PM 36.0933 -87.0358 272° West 286 329 12,000 2,340 Climbing Memphis Center
07:42PM 36.0964 -87.1614 272° West 319 367 14,200 2,100 Climbing Memphis Center
07:43PM 36.0869 -87.2825 265° West 352 405 16,200 2,160 Climbing Memphis Center
07:44PM 36.0628 -87.4042 256° West 370 426 18,600 2,100 Climbing Memphis Center
07:45PM 36.0367 -87.5308 256° West 380 437 20,500 1,800 Climbing Memphis Center
07:46PM 36.0106 -87.6653 257° West 388 447 22,300 1,920 Climbing Memphis Center
07:47PM 35.9842 -87.7969 256° West 394 453 24,400 1,800 Climbing Memphis Center
07:48PM 35.9533 -87.9311 254° West 400 460 25,900 1,500 Climbing Memphis Center
07:49PM 35.9247 -88.0678 256° West 405 466 27,500 1,440 Climbing Memphis Center
07:50PM 35.9022 -88.2017 258° West 405 466 28,800 1,560 Climbing Memphis Center
07:51PM 35.8753 -88.3408 257° West 405 466 30,700 1,980 Climbing Memphis Center
07:52PM 35.8269 -88.4547 242° Southwest 376 433 32,800 1,500 Climbing Memphis Center
07:53PM 35.7492 -88.5433 223° Southwest 382 440 33,800 600 Climbing Memphis Center
07:54PM 35.6692 -88.6347 223° Southwest 387 445 34,000 60 Climbing Memphis Center
07:55PM 35.5869 -88.7308 224° Southwest 392 451 34,000  Level Memphis Center
07:56PM 35.5089 -88.8242 224° Southwest 398 458 34,000  Level Memphis Center
07:57PM 35.4286 -88.9175 223° Southwest 398 458 34,000  Level Memphis Center
07:58PM 35.3483 -89.0078 223° Southwest 398 458 34,000  Level Memphis Center
07:59PM 35.2681 -89.1008 223° Southwest 398 458 34,000  Level Memphis Center
08:00PM 35.1833 -89.1986 223° Southwest 398 458 34,000  Level Memphis Center
08:01PM 35.1092 -89.2858 224° Southwest 405 466 34,000  Level Memphis Center
08:02PM 35.0222 -89.3783 221° Southwest 415 478 34,000  Level Memphis Center
08:03PM 34.9375 -89.4756 223° Southwest 415 478 34,000  Level Memphis Center
08:04PM 34.8525 -89.5650 221° Southwest 415 478 34,000  Level Memphis Center
08:05PM 34.7592 -89.6797 225° Southwest 420 483 34,000  Level Memphis Center
08:06PM 34.6700 -89.7764 222° Southwest 427 491 34,000  Level Memphis Center
08:07PM 34.5869 -89.8728 224° Southwest 420 483 34,000  Level Memphis Center
08:08PM 34.4997 -89.9689 222° Southwest 420 483 34,000  Level Memphis Center
08:09PM 34.4144 -90.0650 223° Southwest 425 489 34,000  Level Memphis Center
08:10PM 34.3375 -90.1533 223° Southwest 425 489 34,000  Level Memphis Center
08:11PM 34.2500 -90.2492 222° Southwest 425 489 34,000  Level Memphis Center
08:12PM 34.1622 -90.3472 223° Southwest 425 489 34,000  Level Memphis Center
08:13PM 34.0767 -90.4400 222° Southwest 425 489 34,000  Level Memphis Center
08:14PM 33.9889 -90.5375 223° Southwest 425 489 34,000  Level Memphis Center
08:15PM 33.8969 -90.6375 222° Southwest 425 489 34,000  Level Memphis Center
08:16PM 33.8028 -90.7397 222° Southwest 425 489 34,000  Level Memphis Center
08:17PM 33.7128 -90.8367 222° Southwest 425 489 34,000  Level Memphis Center
08:18PM 33.6267 -90.9336 223° Southwest 430 495 34,000  Level Memphis Center
08:19PM 33.5364 -91.0275 221° Southwest 430 495 34,000  Level Memphis Center
08:20PM 33.4483 -91.1242 223° Southwest 425 489 34,000  Level Memphis Center
08:21PM 33.3600 -91.2178 222° Southwest 425 489 34,000  Level Memphis Center
08:22PM 33.2736 -91.3139 223° Southwest 425 489 34,000  Level Memphis Center
08:23PM 33.1833 -91.4047 220° Southwest 425 489 34,000  Level Memphis Center
08:25PM 33.0389 -91.5617 222° Southwest 429 494 34,000  Level Houston Center
08:26PM 32.9839 -91.6214 222° Southwest 430 495 34,000  Level Fort Worth Center
08:27PM 32.8964 -91.7183 223° Southwest 430 495 34,000  Level Fort Worth Center
08:28PM 32.8086 -91.8056 220° Southwest 425 489 34,000 -420 Level Fort Worth Center
08:29PM 32.7350 -91.8867 223° Southwest 413 475 33,200 -960 Descending Fort Worth Center
08:30PM 32.6331 -91.9942 222° Southwest 434 499 32,100 -1,140 Descending Fort Worth Center
08:31PM 32.5433 -92.0906 222° Southwest 447 514 31,000 -780 Descending Fort Worth Center
08:32PM 32.4022 -92.2339 221° Southwest 438 504 30,000 -420 Descending Houston Center
08:33PM 32.2922 -92.3433 220° Southwest 435 501 30,000  Level Houston Center
08:34PM 32.2017 -92.4378 221° Southwest 435 501 30,000  Level Houston Center
08:35PM 32.1097 -92.5303 220° Southwest 435 501 30,000  Level Houston Center
08:36PM 32.0186 -92.6250 221° Southwest 436 502 30,000  Level Houston Center
08:37PM 31.9311 -92.7225 223° Southwest 435 501 30,000  Level Houston Center
08:38PM 31.8514 -92.8286 229° Southwest 433 498 30,000  Level Houston Center
08:40PM 31.7531 -92.9539 227° Southwest 435 501 30,000  Level Houston Center
08:41PM 31.6733 -93.0586 228° Southwest 432 497 30,000  Level Houston Center
08:42PM 31.5911 -93.1628 227° Southwest 434 499 30,000  Level Houston Center
08:43PM 31.5092 -93.2647 227° Southwest 431 496 30,000  Level Houston Center
08:44PM 31.4300 -93.3650 227° Southwest 432 497 30,000  Level Houston Center
08:45PM 31.3322 -93.4869 227° Southwest 430 495 30,000  Level Houston Center
08:46PM 31.2508 -93.5894 227° Southwest 431 496 30,000 -120 Level Houston Center
08:47PM 31.1681 -93.6925 227° Southwest 428 493 29,800 -540 Descending Houston Center
08:48PM 31.0856 -93.7967 227° Southwest 437 503 29,000 -840 Descending Houston Center
08:49PM 31.0047 -93.8967 227° Southwest 446 513 28,100 -1,020 Descending Houston Center
08:50PM 30.9147 -94.0058 226° Southwest 448 516 27,000 -1,020 Descending Houston Center
08:51PM 30.8297 -94.1103 227° Southwest 447 514 26,100 -1,080 Descending Houston Center
08:52PM 30.7269 -94.2358 226° Southwest 450 518 24,900 -1,380 Descending Houston Center
08:52PM 30.6769 -94.2967 226° Southwest 447 514 23,900 -1,860 Descending Houston Center
08:53PM 30.6508 -94.3292 227° Southwest 444 511 23,300 -1,920 Descending Houston Center
08:54PM 30.5681 -94.4275 226° Southwest 391 450 21,200 -2,100 Descending Houston Center
08:55PM 30.4911 -94.5225 227° Southwest 370 426 18,900 -2,340 Descending Houston Center
08:56PM 30.4400 -94.6019 233° Southwest 351 404 16,700 -2,340 Descending Houston Center
08:57PM 30.3722 -94.7050 233° Southwest 344 396 14,200 -2,280 Descending Houston Center
08:58PM 30.3175 -94.7919 234° Southwest 338 389 11,900 -2,040 Descending Houston Center
08:59PM 30.2664 -94.8711 233° Southwest 329 379 10,300 -900 Descending Houston Center
09:00PM 30.2125 -94.9556 234° Southwest 309 356 10,000 -180 Descending Houston Center
09:01PM 30.1581 -95.0369 232° Southwest 320 368 10,000  Level Houston Center
09:02PM 30.0836 -95.0944 214° Southwest 328 377 10,000  Level Houston Center
09:03PM 29.9967 -95.1319 200° South 336 387 10,000  Level Houston Center
09:04PM 29.9158 -95.1658 200° South 305 351 10,000 -480 Level Houston Center
09:05PM 29.8469 -95.1936 199° South 247 284 9,100 -960 Descending Houston Center
09:06PM 29.7806 -95.2233 201° Southwest 239 275 8,100 -1,140 Descending Houston Center
09:07PM 29.7200 -95.2500 201° Southwest 227 261 6,900 -1,080 Descending Houston Center
09:08PM 29.6619 -95.2811 205° Southwest 236 272 6,000 -720 Descending Houston Center
09:08PM 29.6536 -95.2958 237° Southwest 235 270 6,000  Level Houston Center
09:09PM 29.6233 -95.3411 232° Southwest 228 262 6,000  Level Houston Center
09:09PM 29.6153 -95.3536 233° Southwest 231 266 6,000 -900 Level Houston Center
09:10PM 29.6108 -95.4097 265° West 226 260 5,100 -1,080 Descending Houston Center
09:10PM 29.6125 -95.4236 278° West 231 266 4,900 -1,140 Descending Houston Center
09:11PM 29.6336 -95.4767 295° West 235 270 4,000 -900 Descending Houston Center
09:11PM 29.6408 -95.4867 310° West 227 261 4,000 -720 Level Houston Center
09:12PM 29.6936 -95.5106 339° North 234 269 3,100 -1,020 Descending Houston Center
09:13PM 29.7333 -95.4650 45° Northeast 231 266 2,300 -840 Descending Houston Center
09:13PM 29.7411 -95.4597 31° Northeast 233 268 2,300 -300 Level Houston Center
09:14PM 29.7469 -95.4056 83° East 198 228 2,000 -300 Descending Houston Center
09:14PM 29.7442 -95.4000 120° Southeast 215 247 2,000 -120 Level Houston Center
09:15PM 29.7133 -95.3614 133° Southeast 180 207 1,900 -240 Descending Houston Center
09:15PM 29.7117 -95.3575 116° Southeast 191 220 1,800 -900 Descending Houston Center
09:16PM 29.6806 -95.3222 135° Southeast 145 167 1,000 -1,020 Descending Houston Center
09:16PM 29.6750 -95.3150 132° Southeast 166 191 800 -660 Descending Houston Center
09:17PM 29.6544 -95.2892 132° Southeast 132 152 300 -660 Descending Houston Center